createdAt,value
2022-11-10T00:01:11.997Z,5.93
2022-11-10T00:03:59.304Z,5.50
2022-11-10T00:06:48.473Z,4.60
2022-11-10T00:09:35.545Z,5.28
2022-11-10T00:12:23.190Z,5.93
2022-11-10T00:15:30.513Z,4.55
2022-11-10T00:18:17.684Z,5.88
2022-11-10T00:21:06.579Z,4.07
2022-11-10T00:23:53.768Z,4.93
2022-11-10T00:26:40.729Z,4.78
2022-11-10T00:29:27.805Z,4.80
2022-11-10T00:32:15.954Z,5.25
2022-11-10T00:35:02.902Z,5.00
2022-11-10T00:37:51.164Z,4.78
2022-11-10T00:40:38.365Z,4.43
2022-11-10T00:43:27.010Z,3.55
2022-11-10T00:46:14.175Z,3.60
2022-11-10T00:49:02.619Z,6.30
2022-11-10T00:51:49.705Z,4.55
2022-11-10T00:54:36.933Z,4.00
2022-11-10T00:57:23.857Z,3.83
2022-11-10T01:00:11.968Z,3.17
2022-11-10T01:02:59.355Z,3.50
2022-11-10T01:05:47.657Z,4.25
2022-11-10T01:08:34.486Z,4.82
2022-11-10T01:11:25.012Z,5.10
2022-11-10T01:14:11.963Z,5.55
2022-11-10T01:16:59.327Z,5.68
2022-11-10T01:19:45.997Z,4.18
2022-11-10T01:22:34.738Z,3.08
2022-11-10T01:25:22.296Z,5.10
2022-11-10T01:28:09.562Z,4.13
2022-11-10T01:31:00.188Z,5.13
2022-11-10T01:33:47.716Z,5.25
2022-11-10T01:36:34.932Z,4.93
2022-11-10T01:39:23.384Z,3.63
2022-11-10T01:42:10.528Z,4.78
2022-11-10T01:45:35.975Z,6.68
2022-11-10T01:48:32.050Z,3.40
2022-11-10T01:51:22.382Z,4.13
2022-11-10T01:54:13.033Z,5.60
2022-11-10T01:57:06.076Z,5.07
2022-11-10T01:59:53.542Z,6.32
2022-11-10T02:02:48.904Z,3.72
2022-11-10T02:05:36.491Z,5.50
2022-11-10T02:08:24.585Z,6.72
2022-11-10T02:11:11.768Z,3.88
2022-11-10T02:14:01.271Z,6.38
2022-11-10T02:16:48.357Z,5.57
2022-11-10T02:19:41.969Z,2.65
2022-11-10T02:22:31.584Z,3.35
2022-11-10T02:25:21.592Z,3.90
2022-11-10T02:28:09.025Z,4.72
2022-11-10T02:30:56.452Z,9.00
2022-11-10T02:33:44.150Z,5.05
2022-11-10T02:36:31.429Z,4.28
2022-11-10T02:39:19.770Z,5.97
2022-11-10T02:42:10.479Z,5.00
2022-11-10T02:44:58.164Z,5.25
2022-11-10T02:47:44.911Z,7.65
2022-11-10T02:50:31.773Z,4.28
2022-11-10T02:53:19.086Z,4.03
2022-11-10T02:56:08.422Z,5.50
2022-11-10T02:58:55.541Z,4.47
2022-11-10T03:01:42.839Z,4.97
2022-11-10T03:04:30.134Z,4.70
2022-11-10T03:07:17.197Z,2.65
2022-11-10T03:10:04.619Z,4.57
2022-11-10T03:12:55.859Z,5.28
2022-11-10T03:15:42.618Z,3.33
2022-11-10T03:18:29.429Z,5.20
2022-11-10T03:21:16.852Z,5.40
2022-11-10T03:24:03.812Z,4.88
2022-11-10T03:26:50.985Z,5.60
2022-11-10T03:29:39.262Z,5.82
2022-11-10T03:32:26.391Z,4.55
2022-11-10T03:35:13.348Z,7.95
2022-11-10T03:38:00.307Z,4.18
2022-11-10T03:41:12.559Z,4.22
2022-11-10T03:43:54.827Z,4.65
2022-11-10T03:46:43.663Z,3.22
2022-11-10T03:49:30.536Z,3.47
2022-11-10T03:52:17.991Z,4.60
2022-11-10T03:55:05.195Z,4.35
2022-11-10T03:57:52.341Z,4.95
2022-11-10T04:00:39.999Z,7.55
2022-11-10T04:03:28.207Z,4.15
2022-11-10T04:06:32.882Z,4.45
2022-11-10T04:09:19.910Z,3.92
2022-11-10T04:12:25.284Z,6.03
2022-11-10T04:15:31.419Z,3.90
2022-11-10T04:18:27.273Z,5.35
2022-11-10T04:21:15.782Z,5.68
2022-11-10T04:24:02.856Z,4.07
2022-11-10T04:26:50.442Z,4.63
2022-11-10T04:29:37.435Z,3.15
2022-11-10T04:32:24.324Z,3.88
2022-11-10T04:35:11.513Z,3.15
2022-11-10T04:37:59.525Z,3.15
2022-11-10T04:40:46.438Z,4.82
2022-11-10T04:43:34.228Z,4.85
2022-11-10T04:46:24.908Z,4.15
2022-11-10T04:49:12.534Z,7.70
2022-11-10T04:51:59.852Z,3.92
2022-11-10T04:54:48.276Z,4.18
2022-11-10T04:57:35.501Z,5.03
2022-11-10T05:00:22.621Z,5.18
2022-11-10T05:03:12.040Z,4.72
2022-11-10T05:05:58.996Z,3.75
2022-11-10T05:08:46.507Z,4.10
2022-11-10T05:11:34.771Z,5.38
2022-11-10T05:14:21.805Z,4.07
2022-11-10T05:17:08.755Z,4.30
2022-11-10T05:19:55.421Z,2.28
2022-11-10T05:22:49.007Z,3.88
2022-11-10T05:25:37.992Z,4.72
2022-11-10T05:28:26.312Z,4.00
2022-11-10T05:31:13.902Z,4.65
2022-11-10T05:34:01.194Z,3.30
2022-11-10T05:36:48.149Z,3.70
2022-11-10T05:39:35.293Z,3.60
2022-11-10T05:42:22.418Z,5.50
2022-11-10T05:45:11.538Z,3.97
2022-11-10T05:47:58.297Z,7.70
2022-11-10T05:50:46.012Z,7.65
2022-11-10T05:53:33.009Z,7.07
2022-11-10T05:56:19.956Z,5.82
2022-11-10T05:59:07.159Z,4.10
2022-11-10T06:01:55.702Z,4.80
2022-11-10T06:04:43.111Z,5.82
2022-11-10T06:07:31.913Z,4.53
2022-11-10T06:10:19.375Z,3.80
2022-11-10T06:13:06.456Z,5.80
2022-11-10T06:15:53.288Z,5.03
2022-11-10T06:18:41.649Z,4.13
2022-11-10T06:21:28.765Z,5.55
2022-11-10T06:24:16.064Z,4.25
2022-11-10T06:27:03.095Z,4.20
2022-11-10T06:29:49.845Z,5.00
2022-11-10T06:32:36.669Z,3.80
2022-11-10T06:35:25.847Z,4.80
2022-11-10T06:38:13.135Z,4.50
2022-11-10T06:41:00.023Z,4.88
2022-11-10T06:43:47.416Z,6.65
2022-11-10T06:46:38.252Z,4.15
2022-11-10T06:49:29.073Z,6.03
2022-11-10T06:52:17.722Z,5.15
2022-11-10T06:55:06.362Z,5.80
2022-11-10T06:57:54.459Z,5.38
2022-11-10T07:00:41.509Z,3.13
2022-11-10T07:03:28.811Z,2.33
2022-11-10T07:06:15.851Z,7.25
2022-11-10T07:09:05.582Z,4.22
2022-11-10T07:11:52.617Z,4.22
2022-11-10T07:14:40.526Z,3.47
2022-11-10T07:17:27.379Z,4.25
2022-11-10T07:20:14.319Z,6.45
2022-11-10T07:23:02.419Z,6.15
2022-11-10T07:25:50.835Z,4.53
2022-11-10T07:28:37.511Z,4.43
2022-11-10T07:31:24.203Z,5.60
2022-11-10T07:34:11.353Z,5.68
2022-11-10T07:36:59.122Z,5.05
2022-11-10T07:39:46.216Z,2.97
2022-11-10T07:42:40.790Z,4.80
2022-11-10T07:45:28.381Z,2.70
2022-11-10T07:48:15.618Z,5.78
2022-11-10T07:51:03.085Z,3.90
2022-11-10T07:53:50.127Z,3.88
2022-11-10T07:56:37.105Z,4.15
2022-11-10T07:59:25.365Z,4.93
2022-11-10T08:02:12.895Z,3.83
2022-11-10T08:04:59.809Z,4.72
2022-11-10T08:07:47.031Z,5.10
2022-11-10T08:10:36.049Z,3.13
2022-11-10T08:13:23.253Z,4.88
2022-11-10T08:16:12.130Z,1.90
2022-11-10T08:18:59.335Z,2.42
2022-11-10T08:21:46.592Z,3.88
2022-11-10T08:24:33.608Z,3.22
2022-11-10T08:27:20.663Z,4.82
2022-11-10T08:30:09.347Z,2.58
2022-11-10T08:33:01.663Z,2.70
2022-11-10T08:35:50.411Z,2.40
2022-11-10T08:38:37.426Z,3.25
2022-11-10T08:41:24.349Z,2.67
2022-11-10T08:44:11.740Z,3.08
2022-11-10T08:46:59.141Z,3.35
2022-11-10T08:49:47.625Z,1.85
2022-11-10T08:52:34.741Z,2.63
2022-11-10T08:55:21.611Z,2.70
2022-11-10T08:58:13.016Z,2.25
2022-11-10T09:01:00.487Z,2.55
2022-11-10T09:03:47.251Z,1.83
2022-11-10T09:06:35.564Z,1.88
2022-11-10T09:09:22.744Z,3.20
2022-11-10T09:12:09.677Z,1.33
2022-11-10T09:15:09.687Z,2.15
2022-11-10T09:17:59.164Z,3.05
2022-11-10T09:20:45.967Z,1.77
2022-11-10T09:23:34.394Z,1.85
2022-11-10T09:26:21.519Z,2.50
2022-11-10T09:29:08.675Z,3.22
2022-11-10T09:31:55.382Z,2.78
2022-11-10T09:34:44.766Z,1.92
2022-11-10T09:37:32.842Z,1.92
2022-11-10T09:40:25.033Z,2.83
2022-11-10T09:43:18.886Z,2.50
2022-11-10T09:46:14.471Z,2.05
2022-11-10T09:49:08.357Z,1.95
2022-11-10T09:51:56.097Z,1.05
2022-11-10T09:54:47.474Z,2.80
2022-11-10T09:57:35.946Z,3.17
2022-11-10T10:00:23.032Z,1.15
2022-11-10T10:03:18.461Z,1.38
2022-11-10T10:06:10.943Z,1.27
2022-11-10T10:09:11.959Z,1.50
2022-11-10T10:12:11.958Z,1.08
2022-11-10T10:15:18.715Z,1.20
2022-11-10T10:18:19.724Z,1.60
2022-11-10T10:21:28.032Z,1.13
2022-11-10T10:24:21.805Z,2.30
2022-11-10T10:27:16.833Z,1.25
2022-11-10T10:30:07.599Z,1.88
2022-11-10T10:32:58.630Z,1.25
2022-11-10T10:35:47.062Z,2.03
2022-11-10T10:38:39.096Z,1.35
2022-11-10T10:41:28.317Z,2.70
2022-11-10T10:44:17.404Z,1.70
2022-11-10T10:47:05.795Z,0.93
2022-11-10T10:49:52.840Z,1.35
2022-11-10T10:52:39.810Z,2.28
2022-11-10T10:55:30.351Z,1.25
2022-11-10T10:58:28.304Z,1.25
2022-11-10T11:01:28.606Z,2.42
2022-11-10T11:04:32.578Z,1.67
2022-11-10T11:07:24.995Z,0.85
2022-11-10T11:10:22.551Z,1.38
2022-11-10T11:13:17.305Z,1.63
2022-11-10T11:16:07.343Z,1.80
2022-11-10T11:18:54.447Z,2.00
2022-11-10T11:21:57.805Z,0.90
2022-11-10T11:24:51.943Z,1.65
2022-11-10T11:27:45.536Z,0.90
2022-11-10T11:30:44.320Z,0.88
2022-11-10T11:33:41.619Z,0.75
2022-11-10T11:36:36.448Z,1.15
2022-11-10T11:39:37.656Z,1.52
2022-11-10T11:42:38.917Z,1.55
2022-11-10T11:45:35.504Z,1.52
2022-11-10T11:48:47.815Z,1.30
2022-11-10T11:51:41.418Z,1.30
2022-11-10T11:54:40.525Z,1.15
2022-11-10T11:57:40.292Z,2.47
2022-11-10T12:00:27.872Z,1.35
2022-11-10T12:03:47.881Z,2.03
2022-11-10T12:06:46.026Z,0.85
2022-11-10T12:09:43.707Z,1.15
2022-11-10T12:12:49.011Z,1.40
2022-11-10T12:15:44.000Z,1.35
2022-11-10T12:18:34.563Z,1.15
2022-11-10T12:21:27.536Z,0.95
2022-11-10T12:24:31.131Z,0.50
2022-11-10T12:27:26.090Z,1.50
2022-11-10T12:30:15.323Z,1.27
2022-11-10T12:33:07.043Z,0.85
2022-11-10T12:35:56.356Z,1.00
2022-11-10T12:38:59.594Z,1.05
2022-11-10T12:41:49.751Z,0.85
2022-11-10T12:44:41.281Z,1.90
2022-11-10T12:47:33.057Z,0.60
2022-11-10T12:50:42.489Z,0.95
2022-11-10T12:53:32.474Z,0.73
2022-11-10T12:56:23.810Z,1.27
2022-11-10T12:59:33.529Z,0.50
2022-11-10T13:02:29.769Z,1.00
2022-11-10T13:05:33.791Z,0.70
2022-11-10T13:08:46.960Z,0.90
2022-11-10T13:11:35.547Z,0.43
2022-11-10T13:14:26.040Z,0.68
2022-11-10T13:17:52.548Z,1.05
2022-11-10T13:20:54.663Z,1.13
2022-11-10T13:24:19.166Z,0.82
2022-11-10T13:27:06.625Z,0.65
2022-11-10T13:29:58.570Z,0.70
2022-11-10T13:32:45.802Z,0.60
2022-11-10T13:35:57.049Z,0.98
2022-11-10T13:38:46.026Z,0.77
2022-11-10T13:41:35.750Z,1.65
2022-11-10T13:44:25.917Z,0.85
2022-11-10T13:47:44.901Z,0.75
2022-11-10T13:50:45.621Z,1.33
2022-11-10T13:53:47.745Z,0.90
2022-11-10T13:56:52.604Z,1.58
2022-11-10T13:59:48.396Z,0.80
2022-11-10T14:02:51.228Z,1.23
2022-11-10T14:06:08.224Z,1.00
2022-11-10T14:09:04.150Z,1.35
2022-11-10T14:11:55.018Z,0.82
2022-11-10T14:14:53.033Z,1.83
2022-11-10T14:17:44.570Z,0.75
2022-11-10T14:20:36.508Z,1.13
2022-11-10T14:23:28.079Z,0.90
2022-11-10T14:26:24.058Z,0.82
2022-11-10T14:29:29.655Z,1.33
2022-11-10T14:32:20.088Z,1.27
2022-11-10T14:35:18.511Z,1.10
2022-11-10T14:38:08.249Z,4.13
2022-11-10T14:40:56.806Z,1.67
2022-11-10T14:43:45.618Z,1.42
2022-11-10T14:46:32.539Z,0.93
2022-11-10T14:49:24.328Z,0.93
2022-11-10T14:52:15.018Z,1.35
2022-11-10T14:55:07.014Z,1.38
2022-11-10T14:57:58.562Z,1.67
2022-11-10T15:00:46.997Z,1.52
2022-11-10T15:03:36.905Z,1.42
2022-11-10T15:06:24.096Z,0.90
2022-11-10T15:09:14.856Z,1.30
2022-11-10T15:12:24.174Z,2.25
2022-11-10T15:15:21.552Z,2.80
2022-11-10T15:18:25.675Z,1.80
2022-11-10T15:21:14.658Z,2.10
2022-11-10T15:24:03.841Z,2.30
2022-11-10T15:26:51.231Z,2.42
2022-11-10T15:29:38.589Z,1.75
2022-11-10T15:32:32.343Z,2.05
2022-11-10T15:35:30.508Z,2.65
2022-11-10T15:38:30.877Z,1.83
2022-11-10T15:41:27.468Z,2.42
2022-11-10T15:44:21.373Z,2.63
2022-11-10T15:47:13.416Z,2.78
2022-11-10T15:50:02.172Z,3.10
2022-11-10T15:52:50.636Z,1.70
2022-11-10T15:55:38.017Z,1.85
2022-11-10T15:58:25.889Z,3.22
2022-11-10T16:01:14.282Z,3.38
2022-11-10T16:04:01.520Z,2.10
2022-11-10T16:06:48.861Z,3.15
2022-11-10T16:09:37.109Z,2.80
2022-11-10T16:12:24.730Z,2.53
2022-11-10T16:15:19.264Z,3.03
2022-11-10T16:18:10.133Z,2.47
2022-11-10T16:20:58.044Z,2.95
2022-11-10T16:23:45.544Z,3.00
2022-11-10T16:26:35.341Z,2.75
2022-11-10T16:29:22.497Z,2.38
2022-11-10T16:32:12.251Z,2.47
2022-11-10T16:34:59.884Z,6.43
2022-11-10T16:37:46.908Z,2.28
2022-11-10T16:40:33.874Z,2.72
2022-11-10T16:43:22.735Z,2.63
2022-11-10T16:46:19.710Z,1.60
2022-11-10T16:49:11.022Z,2.75
2022-11-10T16:51:58.447Z,2.45
2022-11-10T16:54:46.079Z,2.42
2022-11-10T16:57:38.731Z,2.53
2022-11-10T17:00:28.685Z,2.15
2022-11-10T17:03:19.224Z,2.03
2022-11-10T17:06:07.014Z,2.40
2022-11-10T17:08:57.487Z,3.05
2022-11-10T17:11:44.725Z,1.90
2022-11-10T17:14:31.843Z,4.10
2022-11-10T17:17:20.434Z,2.17
2022-11-10T17:20:10.320Z,2.10
2022-11-10T17:22:57.420Z,2.45
2022-11-10T17:25:45.636Z,3.25
2022-11-10T17:28:32.554Z,2.63
2022-11-10T17:31:21.048Z,2.63
2022-11-10T17:34:10.287Z,2.33
2022-11-10T17:36:57.296Z,2.72
2022-11-10T17:39:44.780Z,2.42
2022-11-10T17:42:32.320Z,2.17
2022-11-10T17:45:23.963Z,3.78
2022-11-10T17:48:11.087Z,4.25
2022-11-10T17:50:59.858Z,2.22
2022-11-10T17:53:47.052Z,2.28
2022-11-10T17:56:34.253Z,3.45
2022-11-10T17:59:21.492Z,2.75
2022-11-10T18:02:10.248Z,2.83
2022-11-10T18:04:57.246Z,4.13
2022-11-10T18:07:46.019Z,2.58
2022-11-10T18:10:33.196Z,1.92
2022-11-10T18:13:20.291Z,3.78
2022-11-10T18:16:09.070Z,4.53
2022-11-10T18:18:56.691Z,2.70
2022-11-10T18:21:43.754Z,2.60
2022-11-10T18:24:32.084Z,2.88
2022-11-10T18:27:19.062Z,3.40
2022-11-10T18:30:07.528Z,2.78
2022-11-10T18:32:54.461Z,6.10
2022-11-10T18:35:41.837Z,4.80
2022-11-10T18:38:29.549Z,3.22
2022-11-10T18:41:35.275Z,3.03
2022-11-10T18:44:22.610Z,3.80
2022-11-10T18:47:13.690Z,2.28
2022-11-10T18:50:00.485Z,3.13
2022-11-10T18:52:47.497Z,2.33
2022-11-10T18:55:34.634Z,1.98
2022-11-10T18:58:23.261Z,4.60
2022-11-10T19:01:11.916Z,5.20
2022-11-10T19:03:59.741Z,2.97
2022-11-10T19:06:46.879Z,3.00
2022-11-10T19:09:34.219Z,2.78
2022-11-10T19:12:26.369Z,2.75
2022-11-10T19:15:15.169Z,3.63
2022-11-10T19:18:01.864Z,2.22
2022-11-10T19:20:49.163Z,3.90
2022-11-10T19:23:36.578Z,4.43
2022-11-10T19:26:24.853Z,3.83
2022-11-10T19:29:11.738Z,2.67
2022-11-10T19:32:00.348Z,4.60
2022-11-10T19:34:47.585Z,2.85
2022-11-10T19:37:35.946Z,5.47
2022-11-10T19:40:23.768Z,5.43
2022-11-10T19:43:10.912Z,2.67
2022-11-10T19:45:57.836Z,4.22
2022-11-10T19:48:46.426Z,4.20
2022-11-10T19:51:33.640Z,3.97
2022-11-10T19:54:21.158Z,3.72
2022-11-10T19:57:08.214Z,4.20
2022-11-10T19:59:55.335Z,4.65
2022-11-10T20:02:45.513Z,2.75
2022-11-10T20:05:34.444Z,5.82
2022-11-10T20:08:21.674Z,4.30
2022-11-10T20:11:11.286Z,4.43
2022-11-10T20:14:00.654Z,3.72
2022-11-10T20:16:47.651Z,5.40
2022-11-10T20:19:40.714Z,3.78
2022-11-10T20:22:29.530Z,3.97
2022-11-10T20:25:16.663Z,3.10
2022-11-10T20:28:06.029Z,3.72
2022-11-10T20:30:56.081Z,2.42
2022-11-10T20:33:43.861Z,2.70
2022-11-10T20:36:34.043Z,4.03
2022-11-10T20:39:22.471Z,4.38
2022-11-10T20:42:10.430Z,4.43
2022-11-10T20:44:57.652Z,2.70
2022-11-10T20:47:44.605Z,4.57
2022-11-10T20:50:32.121Z,4.22
2022-11-10T20:53:19.261Z,4.13
2022-11-10T20:56:08.868Z,4.10
2022-11-10T20:58:55.732Z,3.35
2022-11-10T21:01:42.796Z,3.17
2022-11-10T21:04:30.114Z,4.05
2022-11-10T21:07:17.466Z,3.65
2022-11-10T21:10:04.857Z,2.63
2022-11-10T21:12:53.330Z,3.50
2022-11-10T21:15:41.353Z,4.00
2022-11-10T21:18:30.857Z,4.18
2022-11-10T21:21:22.391Z,4.38
2022-11-10T21:24:10.492Z,3.25
2022-11-10T21:26:58.317Z,3.38
2022-11-10T21:29:46.832Z,3.40
2022-11-10T21:32:33.821Z,2.55
2022-11-10T21:35:21.660Z,4.47
2022-11-10T21:38:08.896Z,3.45
2022-11-10T21:40:58.303Z,3.28
2022-11-10T21:43:45.423Z,5.53
2022-11-10T21:46:33.793Z,3.53
2022-11-10T21:49:20.982Z,4.72
2022-11-10T21:52:07.983Z,5.22
2022-11-10T21:54:54.892Z,3.83
2022-11-10T21:57:41.818Z,5.32
2022-11-10T22:00:28.911Z,4.85
2022-11-10T22:03:17.297Z,5.40
2022-11-10T22:06:06.056Z,3.58
2022-11-10T22:08:53.350Z,3.70
2022-11-10T22:11:57.783Z,5.25
2022-11-10T22:15:02.072Z,5.85
2022-11-10T22:18:06.661Z,5.90
2022-11-10T22:20:54.669Z,2.95
2022-11-10T22:23:59.787Z,4.60
2022-11-10T22:26:46.665Z,4.43
2022-11-10T22:29:34.634Z,5.60
2022-11-10T22:32:21.697Z,3.17
2022-11-10T22:35:29.555Z,4.20
2022-11-10T22:38:17.651Z,5.63
2022-11-10T22:41:22.526Z,5.50
2022-11-10T22:44:10.837Z,4.43
2022-11-10T22:46:57.638Z,6.72
2022-11-10T22:49:44.740Z,3.60
2022-11-10T22:52:32.169Z,5.00
2022-11-10T22:55:20.920Z,4.93
2022-11-10T22:58:07.747Z,3.22
2022-11-10T23:00:54.851Z,5.13
2022-11-10T23:03:43.306Z,5.18
2022-11-10T23:06:30.584Z,4.53
2022-11-10T23:09:17.697Z,4.05
2022-11-10T23:12:06.408Z,5.53
2022-11-10T23:14:53.344Z,3.55
2022-11-10T23:17:40.582Z,6.25
2022-11-10T23:20:27.920Z,5.45
2022-11-10T23:23:15.306Z,4.45
2022-11-10T23:26:04.717Z,4.63
2022-11-10T23:28:54.623Z,5.25
2022-11-10T23:34:53.146Z,5.53
2022-11-10T23:37:40.202Z,5.30
2022-11-10T23:40:27.587Z,5.20
2022-11-10T23:43:14.607Z,6.25
2022-11-10T23:46:07.542Z,3.25
2022-11-10T23:48:55.080Z,5.03
2022-11-10T23:51:42.494Z,3.67
2022-11-10T23:54:29.598Z,4.50
2022-11-10T23:57:16.659Z,2.92
